Aviation Digital Data Service (ADDS)

Output produced by METARs form (1716 UTC 30 October 2020)
found at http://www.aviationweather.gov/metar/data/
 
KMGM 301653Z 34011G18KT 10SM SCT029 16/07 A3019 RMK AO2 SLP222 T01610072
KMGM 301120Z 3012/3112 32011KT P6SM OVC020 
     FM301500 34009KT P6SM BKN040 
     FM301800 35009KT P6SM SCT180 
     FM310100 VRB04KT P6SM SKC